createdAt,value
2023-01-19T00:03:56.105Z,5.80
2023-01-19T00:09:01.728Z,6.17
2023-01-19T00:14:09.616Z,6.35
2023-01-19T00:19:14.910Z,5.65
2023-01-19T00:24:20.130Z,5.43
2023-01-19T00:29:30.871Z,5.80
2023-01-19T00:34:40.100Z,6.10
2023-01-19T00:39:45.702Z,5.30
2023-01-19T00:44:53.956Z,6.35
2023-01-19T00:49:59.270Z,5.72
2023-01-19T00:55:04.517Z,6.00
2023-01-19T01:00:15.903Z,5.83
2023-01-19T01:05:21.875Z,5.95
2023-01-19T01:10:29.417Z,4.90
2023-01-19T01:15:37.304Z,5.50
2023-01-19T01:20:42.623Z,5.07
2023-01-19T01:25:47.882Z,5.80
2023-01-19T01:30:59.265Z,5.30
2023-01-19T01:36:04.625Z,6.18
2023-01-19T01:41:10.644Z,5.32
2023-01-19T01:46:20.078Z,5.75
2023-01-19T01:51:28.613Z,6.10
2023-01-19T01:56:37.768Z,5.63
2023-01-19T02:01:58.140Z,5.13
2023-01-19T02:07:17.552Z,6.10
2023-01-19T02:12:35.623Z,5.50
2023-01-19T02:17:43.604Z,5.97
2023-01-19T02:22:52.312Z,6.03
2023-01-19T02:28:00.268Z,5.47
2023-01-19T02:33:05.638Z,6.05
2023-01-19T02:38:12.264Z,5.10
2023-01-19T02:43:21.902Z,5.17
2023-01-19T02:48:27.495Z,5.78
2023-01-19T02:54:06.323Z,5.47
2023-01-19T02:59:19.587Z,5.47
2023-01-19T03:04:31.611Z,5.47
2023-01-19T03:09:44.144Z,5.67
2023-01-19T03:14:52.774Z,5.20
2023-01-19T03:19:58.412Z,5.72
2023-01-19T03:25:05.339Z,5.50
2023-01-19T03:30:18.698Z,5.13
2023-01-19T03:35:27.261Z,4.67
2023-01-19T03:40:35.331Z,5.00
2023-01-19T03:45:44.115Z,5.40
2023-01-19T03:50:50.093Z,4.68
2023-01-19T03:55:55.626Z,4.88
2023-01-19T04:01:04.276Z,5.30
2023-01-19T04:06:09.917Z,4.60
2023-01-19T04:11:15.123Z,4.30
2023-01-19T04:16:23.564Z,4.78
2023-01-19T04:21:29.205Z,4.85
2023-01-19T04:26:34.427Z,5.17
2023-01-19T04:31:42.310Z,5.38
2023-01-19T04:36:51.122Z,4.65
2023-01-19T04:41:57.523Z,5.10
2023-01-19T04:47:05.642Z,5.63
2023-01-19T04:52:11.031Z,5.33
2023-01-19T04:57:16.208Z,5.07
2023-01-19T05:02:24.114Z,5.82
2023-01-19T05:07:30.119Z,4.88
2023-01-19T05:12:36.319Z,4.85
2023-01-19T05:17:44.895Z,5.10
2023-01-19T05:22:52.548Z,5.50
2023-01-19T05:27:57.849Z,5.90
2023-01-19T05:33:05.677Z,5.82
2023-01-19T05:38:10.918Z,6.05
2023-01-19T05:43:16.179Z,6.40
2023-01-19T05:48:24.308Z,5.57
2023-01-19T05:53:29.997Z,6.22
2023-01-19T05:58:35.517Z,5.57
2023-01-19T06:03:43.352Z,5.45
2023-01-19T06:08:48.811Z,5.53
2023-01-19T06:13:54.283Z,5.45
2023-01-19T06:19:02.147Z,5.68
2023-01-19T06:24:08.320Z,5.10
2023-01-19T06:29:14.627Z,4.80
2023-01-19T06:34:22.654Z,3.97
2023-01-19T06:39:27.914Z,4.60
2023-01-19T06:44:33.156Z,4.13
2023-01-19T06:49:41.202Z,3.53
2023-01-19T06:54:46.489Z,3.58
2023-01-19T06:59:51.945Z,4.77
2023-01-19T07:04:59.873Z,4.97
2023-01-19T07:10:05.124Z,5.57
2023-01-19T07:15:12.228Z,6.55
2023-01-19T07:20:20.412Z,7.88
2023-01-19T07:25:27.028Z,7.77
2023-01-19T07:30:32.660Z,8.02
2023-01-19T07:35:40.650Z,8.35
2023-01-19T07:40:47.041Z,7.60
2023-01-19T07:45:53.003Z,8.40
2023-01-19T07:51:10.986Z,9.90
2023-01-19T07:56:17.812Z,8.23
2023-01-19T08:01:23.718Z,9.00
2023-01-19T08:06:37.046Z,9.32
2023-01-19T08:11:42.283Z,7.70
2023-01-19T08:16:47.656Z,6.23
2023-01-19T08:21:56.504Z,6.97
2023-01-19T08:27:02.768Z,6.13
2023-01-19T08:32:08.867Z,7.70
2023-01-19T08:37:16.827Z,8.05
2023-01-19T08:42:22.059Z,8.60
2023-01-19T08:47:27.475Z,9.05
2023-01-19T08:52:35.676Z,9.40
2023-01-19T08:57:41.103Z,10.00
2023-01-19T09:02:46.532Z,8.95
2023-01-19T09:07:54.488Z,9.70
2023-01-19T09:12:59.873Z,9.20
2023-01-19T09:18:05.662Z,9.65
2023-01-19T09:23:15.835Z,10.27
2023-01-19T09:28:21.200Z,10.98
2023-01-19T09:33:27.467Z,10.50
2023-01-19T09:38:35.454Z,9.57
2023-01-19T09:43:45.466Z,9.70
2023-01-19T09:48:54.069Z,9.38
2023-01-19T09:54:16.339Z,9.48
2023-01-19T09:59:25.287Z,10.93
2023-01-19T10:04:34.019Z,9.13
2023-01-19T10:09:52.326Z,9.75
2023-01-19T10:15:05.013Z,10.27
2023-01-19T10:20:18.006Z,9.80
2023-01-19T10:25:26.501Z,10.27
2023-01-19T10:30:32.453Z,10.75
2023-01-19T10:35:37.888Z,11.45
2023-01-19T10:40:51.239Z,10.57
2023-01-19T10:45:57.607Z,10.05
2023-01-19T10:51:06.892Z,11.30
2023-01-19T10:56:19.187Z,10.32
2023-01-19T11:01:26.647Z,11.23
2023-01-19T11:06:34.185Z,9.93
2023-01-19T11:11:49.952Z,9.40
2023-01-19T11:16:59.384Z,10.20
2023-01-19T11:22:21.664Z,10.40
2023-01-19T11:27:30.073Z,9.98
2023-01-19T11:32:37.229Z,10.45
2023-01-19T11:37:43.294Z,9.68
2023-01-19T11:42:51.164Z,9.20
2023-01-19T11:47:57.395Z,11.10
2023-01-19T11:53:08.580Z,11.52
2023-01-19T11:58:19.498Z,10.35
2023-01-19T12:03:30.649Z,9.35
2023-01-19T12:08:39.509Z,9.70
2023-01-19T12:13:49.229Z,9.75
2023-01-19T12:18:58.431Z,10.27
2023-01-19T12:24:11.546Z,9.77
2023-01-19T12:29:22.610Z,9.90
2023-01-19T12:34:36.129Z,8.77
2023-01-19T12:39:51.137Z,9.23
2023-01-19T12:45:10.208Z,8.65
2023-01-19T12:50:21.586Z,10.77
2023-01-19T12:55:31.312Z,10.45
2023-01-19T13:00:44.992Z,9.80
2023-01-19T13:05:56.504Z,9.82
2023-01-19T13:11:18.732Z,10.40
2023-01-19T13:16:59.927Z,9.70
2023-01-19T13:22:53.989Z,8.82
2023-01-19T13:28:01.247Z,9.27
2023-01-19T13:33:19.074Z,9.35
2023-01-19T13:38:29.510Z,9.07
2023-01-19T13:43:40.673Z,8.93
2023-01-19T13:48:56.935Z,9.85
2023-01-19T13:54:06.236Z,9.80
2023-01-19T13:59:15.269Z,10.35
2023-01-19T14:04:34.794Z,10.35
2023-01-19T14:09:42.798Z,10.60
2023-01-19T14:14:49.613Z,10.93
2023-01-19T14:19:56.517Z,10.37
2023-01-19T14:25:24.920Z,8.80
2023-01-19T14:30:32.608Z,8.85
2023-01-19T14:35:38.003Z,8.40
2023-01-19T14:40:46.173Z,8.90
2023-01-19T14:45:51.552Z,8.03
2023-01-19T14:51:03.988Z,8.43
2023-01-19T14:56:13.406Z,8.40
2023-01-19T15:01:18.759Z,10.15
2023-01-19T15:06:24.418Z,9.52
2023-01-19T15:11:35.320Z,9.07
2023-01-19T15:16:55.707Z,9.45
2023-01-19T15:22:00.925Z,8.93
2023-01-19T15:27:12.239Z,8.02
2023-01-19T15:32:18.144Z,8.80
2023-01-19T15:37:25.137Z,7.90
2023-01-19T15:42:33.389Z,7.47
2023-01-19T15:47:38.615Z,8.38
2023-01-19T15:52:43.936Z,8.40
2023-01-19T15:57:52.782Z,8.32
2023-01-19T16:02:58.191Z,8.00
2023-01-19T16:08:03.594Z,8.15
2023-01-19T16:13:11.710Z,8.73
2023-01-19T16:18:17.387Z,7.93
2023-01-19T16:23:22.679Z,7.32
2023-01-19T16:28:30.875Z,7.93
2023-01-19T16:33:36.153Z,8.30
2023-01-19T16:38:41.541Z,7.55
2023-01-19T16:43:53.490Z,6.78
2023-01-19T16:49:02.652Z,6.93
2023-01-19T16:54:08.769Z,6.63
2023-01-19T16:59:19.086Z,6.38
2023-01-19T17:04:26.556Z,6.60
2023-01-19T17:09:31.888Z,6.47
2023-01-19T17:14:39.937Z,7.28
2023-01-19T17:19:45.238Z,7.13
2023-01-19T17:24:50.639Z,8.27
2023-01-19T17:29:58.539Z,7.35
2023-01-19T17:35:03.956Z,6.70
2023-01-19T17:40:11.109Z,7.45
2023-01-19T17:45:27.112Z,10.47
2023-01-19T17:50:34.757Z,9.73
2023-01-19T17:55:40.249Z,8.65
2023-01-19T18:00:48.191Z,12.60
2023-01-19T18:05:56.594Z,10.68
2023-01-19T18:11:04.642Z,11.83
2023-01-19T18:16:15.249Z,10.65
2023-01-19T18:21:21.808Z,8.85
2023-01-19T18:26:30.386Z,10.15
2023-01-19T18:31:38.582Z,10.73
2023-01-19T18:36:44.541Z,12.23
2023-01-19T18:41:49.863Z,11.25
2023-01-19T18:46:58.132Z,10.38
2023-01-19T18:52:04.610Z,10.73
2023-01-19T18:57:09.973Z,10.55
2023-01-19T19:02:17.983Z,11.10
2023-01-19T19:07:23.383Z,10.43
2023-01-19T19:12:28.687Z,10.77
2023-01-19T19:17:38.633Z,10.57
2023-01-19T19:22:43.936Z,10.32
2023-01-19T19:27:54.106Z,8.80
2023-01-19T19:33:02.420Z,9.50
2023-01-19T19:38:07.947Z,10.05
2023-01-19T19:43:13.599Z,9.97
2023-01-19T19:48:21.708Z,9.73
2023-01-19T19:53:27.465Z,10.00
2023-01-19T19:58:33.718Z,14.32
2023-01-19T20:03:42.881Z,11.73
2023-01-19T20:08:48.222Z,8.90
2023-01-19T20:13:53.609Z,9.73
2023-01-19T20:19:04.167Z,8.93
2023-01-19T20:24:19.231Z,8.45
2023-01-19T20:29:28.284Z,8.85
2023-01-19T20:34:36.654Z,9.32
2023-01-19T20:39:46.989Z,8.43
2023-01-19T20:44:52.484Z,8.30
2023-01-19T20:50:00.413Z,8.80
2023-01-19T20:55:08.769Z,7.22
2023-01-19T21:00:15.344Z,7.75
2023-01-19T21:05:23.667Z,7.40
2023-01-19T21:10:29.154Z,6.53
2023-01-19T21:15:34.388Z,7.07
2023-01-19T21:20:42.319Z,7.10
2023-01-19T21:25:52.087Z,7.72
2023-01-19T21:30:58.676Z,6.90
2023-01-19T21:36:07.122Z,7.13
2023-01-19T21:41:16.376Z,7.68
2023-01-19T21:46:28.905Z,7.20
2023-01-19T21:51:39.057Z,6.90
2023-01-19T21:56:45.321Z,7.07
2023-01-19T22:01:50.821Z,7.40
2023-01-19T22:06:58.975Z,8.07
2023-01-19T22:12:04.451Z,8.25
2023-01-19T22:17:12.114Z,7.40
2023-01-19T22:22:20.068Z,7.63
2023-01-19T22:27:25.297Z,7.33
2023-01-19T22:32:30.543Z,8.75
2023-01-19T22:37:40.684Z,8.80
2023-01-19T22:42:48.463Z,8.65
2023-01-19T22:47:53.797Z,8.93
2023-01-19T22:53:01.666Z,8.80
2023-01-19T22:58:06.945Z,8.45
2023-01-19T23:03:12.253Z,8.90
2023-01-19T23:08:20.254Z,9.60
2023-01-19T23:13:25.581Z,9.75
2023-01-19T23:18:31.717Z,10.17
2023-01-19T23:23:39.829Z,10.63
2023-01-19T23:28:45.892Z,10.45
2023-01-19T23:33:51.946Z,9.73
2023-01-19T23:39:01.968Z,8.75
2023-01-19T23:44:07.580Z,9.53
2023-01-19T23:49:13.011Z,9.48
2023-01-19T23:54:20.939Z,9.75
2023-01-19T23:59:26.241Z,10.05
